createdAt,value
2023-05-06T00:02:57.309Z,16.41
2023-05-06T00:05:59.995Z,16.40
2023-05-06T00:09:02.640Z,16.36
2023-05-06T00:12:05.609Z,16.27
2023-05-06T00:15:08.847Z,16.24
2023-05-06T00:18:11.605Z,16.20
2023-05-06T00:21:14.209Z,16.12
2023-05-06T00:24:16.794Z,16.09
2023-05-06T00:27:19.382Z,16.11
2023-05-06T00:30:22.160Z,16.06
2023-05-06T00:33:24.762Z,16.00
2023-05-06T00:36:27.882Z,16.00
2023-05-06T00:39:30.687Z,15.98
2023-05-06T00:42:33.392Z,15.98
2023-05-06T00:45:36.658Z,15.90
2023-05-06T00:48:39.580Z,15.80
2023-05-06T00:51:42.206Z,15.76
2023-05-06T00:54:44.858Z,15.77
2023-05-06T00:57:49.551Z,15.65
2023-05-06T01:00:52.467Z,15.60
2023-05-06T01:03:58.456Z,15.52
2023-05-06T01:07:01.531Z,15.52
2023-05-06T01:10:19.980Z,15.50
2023-05-06T01:13:52.000Z,15.44
2023-05-06T01:16:56.563Z,15.36
2023-05-06T01:19:59.878Z,15.36
2023-05-06T01:23:06.837Z,15.31
2023-05-06T01:26:09.473Z,15.20
2023-05-06T01:29:12.238Z,15.21
2023-05-06T01:32:29.983Z,15.22
2023-05-06T01:35:32.877Z,15.22
2023-05-06T01:38:42.012Z,15.25
2023-05-06T01:41:48.796Z,15.19
2023-05-06T01:44:52.941Z,15.08
2023-05-06T01:47:56.728Z,15.08
2023-05-06T01:50:59.398Z,15.04
2023-05-06T01:54:02.384Z,15.06
2023-05-06T01:57:05.032Z,15.05
2023-05-06T02:00:09.910Z,14.97
2023-05-06T02:03:14.507Z,14.98
2023-05-06T02:06:17.694Z,15.01
2023-05-06T02:09:20.588Z,15.05
2023-05-06T02:12:25.181Z,15.14
2023-05-06T02:15:29.053Z,15.09
2023-05-06T02:18:32.293Z,15.13
2023-05-06T02:21:34.727Z,15.17
2023-05-06T02:24:37.683Z,15.18
2023-05-06T02:27:40.026Z,15.26
2023-05-06T02:30:42.976Z,15.22
2023-05-06T02:33:45.523Z,15.25
2023-05-06T02:36:48.433Z,15.26
2023-05-06T02:39:50.830Z,15.30
2023-05-06T02:42:53.710Z,15.26
2023-05-06T02:45:56.050Z,15.27
2023-05-06T02:48:58.954Z,15.28
2023-05-06T02:52:01.227Z,15.20
2023-05-06T02:55:05.757Z,15.15
2023-05-06T02:58:08.202Z,15.08
2023-05-06T03:01:11.351Z,15.10
2023-05-06T03:04:13.884Z,15.10
2023-05-06T03:07:16.779Z,15.10
2023-05-06T03:10:19.476Z,15.10
2023-05-06T03:13:22.628Z,15.10
2023-05-06T03:16:25.303Z,15.08
2023-05-06T03:19:29.035Z,15.05
2023-05-06T03:22:31.415Z,15.03
2023-05-06T03:25:34.418Z,15.03
2023-05-06T03:28:36.985Z,14.96
2023-05-06T03:31:40.846Z,14.94
2023-05-06T03:34:43.829Z,14.95
2023-05-06T03:37:47.707Z,14.89
2023-05-06T03:40:50.821Z,14.81
2023-05-06T03:43:55.761Z,14.84
2023-05-06T03:46:58.795Z,14.88
2023-05-06T03:50:02.944Z,14.90
2023-05-06T03:53:06.248Z,14.99
2023-05-06T03:56:09.882Z,14.99
2023-05-06T03:59:13.166Z,14.98
2023-05-06T04:02:17.357Z,14.94
2023-05-06T04:05:20.290Z,14.95
2023-05-06T04:08:23.126Z,14.94
2023-05-06T04:11:26.428Z,14.94
2023-05-06T04:14:31.363Z,14.85
2023-05-06T04:17:34.218Z,14.82
2023-05-06T04:20:37.095Z,14.82
2023-05-06T04:23:39.849Z,14.84
2023-05-06T04:26:42.669Z,14.92
2023-05-06T04:29:46.144Z,14.95
2023-05-06T04:32:48.791Z,15.00
2023-05-06T04:35:56.244Z,14.98
2023-05-06T04:38:59.769Z,14.98
2023-05-06T04:42:03.438Z,15.11
2023-05-06T04:45:07.260Z,15.01
2023-05-06T04:48:11.153Z,15.01
2023-05-06T04:51:14.160Z,15.00
2023-05-06T04:54:16.878Z,14.95
2023-05-06T04:57:19.636Z,15.00
2023-05-06T05:00:22.417Z,14.95
2023-05-06T05:03:25.623Z,14.93
2023-05-06T05:06:28.927Z,15.07
2023-05-06T05:09:31.750Z,15.09
2023-05-06T05:12:34.488Z,15.08
2023-05-06T05:15:37.953Z,15.09
2023-05-06T05:18:41.405Z,15.21
2023-05-06T05:21:44.827Z,15.18
2023-05-06T05:24:48.503Z,15.22
2023-05-06T05:27:52.098Z,15.37
2023-05-06T05:30:55.171Z,15.39
2023-05-06T05:33:57.647Z,15.43
2023-05-06T05:37:00.822Z,15.50
2023-05-06T05:40:04.669Z,15.62
2023-05-06T05:43:07.865Z,15.64
2023-05-06T05:46:10.650Z,15.71
2023-05-06T05:49:14.038Z,15.93
2023-05-06T05:52:16.945Z,15.96
2023-05-06T05:55:20.047Z,15.99
2023-05-06T05:58:22.900Z,16.04
2023-05-06T06:01:26.917Z,16.11
2023-05-06T06:04:29.748Z,16.27
2023-05-06T06:07:33.408Z,16.44
2023-05-06T06:10:36.060Z,16.55
2023-05-06T06:13:39.127Z,16.69
2023-05-06T06:16:41.777Z,16.96
2023-05-06T06:19:47.782Z,17.07
2023-05-06T06:22:50.712Z,17.15
2023-05-06T06:25:53.502Z,17.37
2023-05-06T06:28:56.279Z,17.74
2023-05-06T06:31:59.486Z,17.80
2023-05-06T06:35:02.135Z,17.87
2023-05-06T06:38:04.798Z,17.92
2023-05-06T06:41:07.451Z,18.04
2023-05-06T06:44:10.089Z,18.17
2023-05-06T06:47:12.699Z,18.34
2023-05-06T06:50:15.387Z,18.57
2023-05-06T06:53:18.161Z,18.73
2023-05-06T06:56:21.964Z,18.69
2023-05-06T06:59:24.690Z,18.83
2023-05-06T07:02:27.357Z,19.03
2023-05-06T07:05:30.152Z,19.27
2023-05-06T07:08:32.752Z,19.51
2023-05-06T07:11:35.392Z,19.82
2023-05-06T07:14:37.946Z,20.15
2023-05-06T07:17:40.572Z,20.51
2023-05-06T07:20:43.181Z,20.55
2023-05-06T07:23:45.941Z,20.75
2023-05-06T07:26:48.540Z,20.83
2023-05-06T07:29:51.494Z,21.05
2023-05-06T07:32:54.185Z,21.25
2023-05-06T07:35:56.782Z,21.62
2023-05-06T07:38:59.532Z,21.75
2023-05-06T07:42:02.106Z,22.06
2023-05-06T07:45:05.342Z,22.32
2023-05-06T07:48:08.132Z,22.39
2023-05-06T07:51:10.758Z,22.68
2023-05-06T07:54:13.372Z,22.75
2023-05-06T07:57:16.266Z,22.71
2023-05-06T08:00:18.944Z,22.68
2023-05-06T08:03:22.634Z,22.60
2023-05-06T08:06:25.121Z,22.84
2023-05-06T08:09:28.155Z,23.20
2023-05-06T08:12:30.656Z,23.63
2023-05-06T08:15:33.568Z,23.95
2023-05-06T08:18:35.872Z,24.34
2023-05-06T08:21:38.788Z,24.48
2023-05-06T08:24:41.076Z,24.70
2023-05-06T08:27:43.954Z,25.26
2023-05-06T08:30:48.441Z,25.86
2023-05-06T08:33:54.353Z,26.07
2023-05-06T08:36:57.143Z,25.77
2023-05-06T08:40:00.261Z,25.72
2023-05-06T08:43:02.852Z,26.10
2023-05-06T08:46:05.768Z,26.61
2023-05-06T08:49:08.221Z,26.76
2023-05-06T08:52:11.804Z,27.05
2023-05-06T08:55:14.580Z,27.22
2023-05-06T08:58:19.097Z,27.42
2023-05-06T09:01:22.133Z,27.79
2023-05-06T09:04:25.044Z,28.01
2023-05-06T09:07:27.620Z,28.30
2023-05-06T09:10:37.988Z,28.64
2023-05-06T09:13:40.490Z,28.41
2023-05-06T09:16:44.925Z,27.81
2023-05-06T09:19:47.593Z,27.88
2023-05-06T09:22:50.680Z,28.04
2023-05-06T09:25:53.343Z,28.32
2023-05-06T09:28:57.910Z,28.50
2023-05-06T09:32:04.614Z,28.86
2023-05-06T09:35:08.462Z,28.67
2023-05-06T09:38:10.996Z,28.22
2023-05-06T09:41:14.392Z,28.75
2023-05-06T09:44:17.529Z,29.32
2023-05-06T09:47:33.531Z,27.40
2023-05-06T09:50:36.157Z,27.33
2023-05-06T09:53:39.184Z,27.91
2023-05-06T09:56:42.763Z,27.64
2023-05-06T09:59:47.372Z,27.12
2023-05-06T10:02:50.068Z,27.93
2023-05-06T10:05:54.486Z,28.37
2023-05-06T10:08:57.112Z,28.73
2023-05-06T10:12:00.740Z,28.53
2023-05-06T10:15:04.447Z,28.20
2023-05-06T10:18:07.426Z,27.89
2023-05-06T10:21:14.119Z,27.61
2023-05-06T10:24:19.339Z,27.45
2023-05-06T10:27:24.649Z,27.51
2023-05-06T10:30:28.567Z,27.00
2023-05-06T10:33:31.424Z,26.78
2023-05-06T10:36:36.367Z,26.48
2023-05-06T10:39:42.048Z,26.19
2023-05-06T10:42:45.127Z,26.26
2023-05-06T10:46:06.785Z,26.66
2023-05-06T10:49:13.825Z,26.70
2023-05-06T10:52:17.421Z,26.75
2023-05-06T10:55:30.054Z,26.84
2023-05-06T10:58:36.062Z,26.80
2023-05-06T11:01:42.646Z,27.25
2023-05-06T11:04:50.271Z,27.89
2023-05-06T11:08:06.651Z,27.75
2023-05-06T11:11:27.802Z,27.28
2023-05-06T11:14:31.682Z,26.82
2023-05-06T11:17:34.971Z,26.00
2023-05-06T11:20:37.930Z,25.36
2023-05-06T11:23:43.506Z,25.24
2023-05-06T11:26:47.714Z,25.03
2023-05-06T11:29:50.026Z,24.72
2023-05-06T11:32:55.449Z,24.98
2023-05-06T11:35:57.892Z,25.36
2023-05-06T11:39:05.337Z,25.36
2023-05-06T11:42:08.770Z,25.58
2023-05-06T11:45:12.000Z,25.51
2023-05-06T11:48:15.111Z,25.10
2023-05-06T11:51:27.149Z,24.82
2023-05-06T11:54:29.455Z,24.62
2023-05-06T11:57:33.286Z,24.80
2023-05-06T12:00:35.918Z,24.79
2023-05-06T12:03:38.848Z,24.69
2023-05-06T12:06:41.318Z,24.62
2023-05-06T12:09:48.565Z,24.77
2023-05-06T12:12:51.089Z,24.68
2023-05-06T12:15:55.116Z,24.71
2023-05-06T12:18:57.610Z,24.69
2023-05-06T12:22:18.770Z,24.41
2023-05-06T12:25:21.041Z,24.14
2023-05-06T12:28:26.979Z,24.19
2023-05-06T12:31:29.374Z,24.11
2023-05-06T12:34:39.266Z,24.20
2023-05-06T12:37:41.634Z,24.12
2023-05-06T12:40:45.697Z,23.84
2023-05-06T12:43:48.096Z,23.71
2023-05-06T12:46:52.633Z,23.71
2023-05-06T12:49:56.021Z,23.75
2023-05-06T12:52:58.898Z,23.79
2023-05-06T12:56:01.281Z,23.86
2023-05-06T12:59:04.433Z,23.98
2023-05-06T13:02:06.954Z,24.06
2023-05-06T13:05:09.999Z,24.15
2023-05-06T13:08:12.574Z,24.23
2023-05-06T13:11:15.519Z,24.19
2023-05-06T13:14:17.883Z,24.00
2023-05-06T13:17:20.885Z,23.91
2023-05-06T13:20:23.287Z,23.81
2023-05-06T13:23:26.203Z,23.73
2023-05-06T13:26:28.603Z,23.73
2023-05-06T13:29:31.926Z,23.53
2023-05-06T13:32:34.257Z,23.46
2023-05-06T13:35:37.185Z,23.48
2023-05-06T13:38:39.656Z,23.46
2023-05-06T13:41:42.813Z,23.56
2023-05-06T13:44:45.098Z,23.42
2023-05-06T13:47:47.986Z,23.32
2023-05-06T13:50:50.743Z,23.22
2023-05-06T13:53:53.654Z,23.27
2023-05-06T13:56:56.415Z,23.15
2023-05-06T13:59:59.309Z,23.34
2023-05-06T14:03:02.165Z,23.22
2023-05-06T14:06:05.347Z,23.21
2023-05-06T14:09:08.135Z,23.09
2023-05-06T14:12:10.982Z,22.99
2023-05-06T14:15:15.031Z,22.84
2023-05-06T14:18:18.072Z,22.79
2023-05-06T14:21:20.846Z,22.65
2023-05-06T14:24:23.779Z,22.48
2023-05-06T14:27:26.406Z,22.62
2023-05-06T14:30:30.002Z,22.45
2023-05-06T14:33:32.926Z,22.28
2023-05-06T14:36:35.888Z,22.11
2023-05-06T14:39:38.382Z,21.92
2023-05-06T14:42:41.310Z,21.78
2023-05-06T14:45:43.911Z,21.68
2023-05-06T14:48:46.933Z,21.57
2023-05-06T14:51:49.936Z,21.48
2023-05-06T14:54:52.868Z,21.41
2023-05-06T14:57:55.251Z,21.32
2023-05-06T15:00:58.219Z,21.47
2023-05-06T15:04:00.738Z,21.24
2023-05-06T15:07:04.039Z,21.07
2023-05-06T15:10:06.941Z,20.89
2023-05-06T15:13:09.970Z,20.70
2023-05-06T15:16:12.555Z,20.48
2023-05-06T15:19:15.502Z,20.38
2023-05-06T15:22:17.836Z,20.31
2023-05-06T15:25:34.407Z,20.37
2023-05-06T15:28:37.652Z,20.30
2023-05-06T15:31:41.259Z,20.13
2023-05-06T15:34:43.701Z,20.16
2023-05-06T15:37:46.618Z,19.97
2023-05-06T15:40:52.267Z,20.08
2023-05-06T15:43:56.551Z,20.05
2023-05-06T15:46:58.804Z,20.07
2023-05-06T15:50:01.962Z,20.14
2023-05-06T15:53:04.350Z,20.02
2023-05-06T15:56:17.668Z,19.97
2023-05-06T15:59:20.809Z,20.05
2023-05-06T16:02:27.170Z,20.01
2023-05-06T16:05:31.097Z,20.08
2023-05-06T16:08:33.890Z,20.24
2023-05-06T16:11:36.457Z,20.36
2023-05-06T16:14:39.042Z,20.49
2023-05-06T16:17:41.893Z,20.50
2023-05-06T16:20:44.495Z,20.46
2023-05-06T16:23:47.322Z,20.44
2023-05-06T16:26:49.952Z,20.44
2023-05-06T16:29:52.630Z,20.38
2023-05-06T16:32:55.329Z,20.33
2023-05-06T16:35:57.950Z,20.25
2023-05-06T16:39:00.596Z,20.18
2023-05-06T16:42:03.668Z,20.11
2023-05-06T16:45:07.151Z,20.04
2023-05-06T16:48:09.919Z,19.96
2023-05-06T16:51:14.379Z,19.93
2023-05-06T16:54:17.085Z,19.96
2023-05-06T16:57:19.831Z,19.88
2023-05-06T17:00:23.636Z,19.84
2023-05-06T17:03:26.358Z,19.93
2023-05-06T17:06:31.299Z,19.85
2023-05-06T17:09:33.977Z,19.80
2023-05-06T17:12:36.638Z,19.80
2023-05-06T17:15:39.340Z,19.77
2023-05-06T17:18:41.988Z,19.75
2023-05-06T17:21:44.590Z,19.74
2023-05-06T17:24:47.392Z,19.74
2023-05-06T17:27:49.983Z,19.73
2023-05-06T17:30:52.587Z,19.74
2023-05-06T17:33:55.290Z,19.73
2023-05-06T17:36:57.904Z,19.73
2023-05-06T17:40:00.614Z,19.71
2023-05-06T17:43:03.280Z,19.71
2023-05-06T17:46:06.903Z,19.70
2023-05-06T17:49:09.534Z,19.70
2023-05-06T17:52:12.222Z,19.71
2023-05-06T17:55:17.444Z,19.70
2023-05-06T17:58:21.476Z,19.68
2023-05-06T18:01:24.164Z,19.67
2023-05-06T18:04:27.175Z,19.66
2023-05-06T18:07:29.835Z,19.65
2023-05-06T18:10:32.772Z,19.65
2023-05-06T18:13:36.347Z,19.66
2023-05-06T18:16:39.264Z,19.66
2023-05-06T18:19:41.562Z,19.65
2023-05-06T18:22:44.831Z,19.65
2023-05-06T18:25:47.284Z,19.65
2023-05-06T18:28:50.194Z,19.65
2023-05-06T18:31:52.679Z,19.65
2023-05-06T18:34:55.676Z,19.62
2023-05-06T18:37:58.291Z,19.61
2023-05-06T18:41:01.869Z,19.62
2023-05-06T18:44:04.679Z,19.62
2023-05-06T18:47:07.576Z,19.61
2023-05-06T18:50:10.042Z,19.61
2023-05-06T18:53:12.851Z,19.61
2023-05-06T18:56:15.219Z,19.62
2023-05-06T18:59:19.562Z,19.62
2023-05-06T19:02:22.232Z,19.61
2023-05-06T19:05:25.132Z,19.58
2023-05-06T19:08:27.622Z,19.56
2023-05-06T19:11:30.628Z,19.55
2023-05-06T19:14:34.667Z,19.54
2023-05-06T19:17:37.727Z,19.74
2023-05-06T19:20:40.458Z,19.86
2023-05-06T19:23:43.421Z,19.66
2023-05-06T19:26:46.439Z,19.51
2023-05-06T19:29:49.551Z,19.46
2023-05-06T19:32:53.631Z,18.97
2023-05-06T19:35:57.838Z,18.29
2023-05-06T19:39:00.202Z,17.84
2023-05-06T19:42:03.093Z,17.65
2023-05-06T19:45:08.823Z,17.54
2023-05-06T19:48:14.589Z,17.41
2023-05-06T19:51:17.621Z,17.35
2023-05-06T19:54:20.684Z,17.46
2023-05-06T19:57:23.079Z,17.32
2023-05-06T20:00:28.091Z,17.30
2023-05-06T20:03:31.582Z,17.29
2023-05-06T20:06:34.248Z,17.31
2023-05-06T20:09:37.034Z,17.33
2023-05-06T20:12:43.297Z,17.38
2023-05-06T20:15:46.049Z,17.31
2023-05-06T20:18:49.688Z,17.33
2023-05-06T20:21:52.409Z,17.35
2023-05-06T20:25:07.211Z,17.35
2023-05-06T20:28:09.907Z,17.35
2023-05-06T20:31:12.656Z,17.36
2023-05-06T20:34:15.480Z,17.35
2023-05-06T20:37:18.428Z,17.37
2023-05-06T20:40:21.457Z,17.38
2023-05-06T20:43:24.876Z,17.41
2023-05-06T20:46:27.592Z,17.41
2023-05-06T20:49:30.994Z,17.40
2023-05-06T20:52:34.239Z,17.38
2023-05-06T20:55:36.992Z,17.38
2023-05-06T20:58:41.258Z,17.46
2023-05-06T21:01:43.927Z,17.47
2023-05-06T21:04:46.757Z,17.50
2023-05-06T21:07:49.609Z,17.59
2023-05-06T21:10:52.260Z,17.84
2023-05-06T21:13:55.172Z,17.68
2023-05-06T21:16:57.843Z,17.63
2023-05-06T21:20:00.819Z,17.63
2023-05-06T21:23:03.947Z,17.65
2023-05-06T21:26:06.779Z,17.67
2023-05-06T21:29:09.503Z,17.69
2023-05-06T21:32:12.263Z,17.69
2023-05-06T21:35:18.078Z,17.69
2023-05-06T21:38:20.860Z,17.70
2023-05-06T21:41:23.557Z,17.70
2023-05-06T21:44:26.199Z,17.70
2023-05-06T21:47:29.119Z,17.70
2023-05-06T21:50:31.754Z,17.69
2023-05-06T21:53:34.421Z,17.68
2023-05-06T21:56:38.039Z,17.67
2023-05-06T21:59:40.910Z,17.66
2023-05-06T22:02:43.539Z,17.65
2023-05-06T22:05:46.370Z,17.66
2023-05-06T22:08:49.210Z,17.65
2023-05-06T22:11:51.950Z,17.64
2023-05-06T22:14:54.586Z,17.78
2023-05-06T22:17:59.065Z,17.73
2023-05-06T22:21:03.141Z,17.87
2023-05-06T22:24:06.041Z,18.00
2023-05-06T22:27:08.662Z,17.76
2023-05-06T22:30:11.690Z,17.88
2023-05-06T22:33:14.286Z,17.63
2023-05-06T22:36:16.893Z,17.68
2023-05-06T22:39:19.834Z,17.84
2023-05-06T22:42:22.464Z,17.75
2023-05-06T22:45:25.174Z,17.67
2023-05-06T22:48:27.984Z,17.52
2023-05-06T22:51:32.145Z,17.50
2023-05-06T22:54:34.824Z,17.32
2023-05-06T22:57:37.493Z,17.30
2023-05-06T23:00:41.401Z,17.30
2023-05-06T23:03:46.441Z,17.33
2023-05-06T23:06:49.121Z,17.35
2023-05-06T23:09:51.841Z,17.39
2023-05-06T23:12:54.472Z,17.41
2023-05-06T23:15:57.244Z,17.41
2023-05-06T23:18:59.937Z,17.44
2023-05-06T23:22:02.578Z,17.42
2023-05-06T23:25:05.785Z,17.44
2023-05-06T23:28:08.424Z,17.49
2023-05-06T23:31:11.090Z,17.45
2023-05-06T23:34:16.115Z,17.44
2023-05-06T23:37:19.160Z,17.47
2023-05-06T23:40:21.866Z,17.73
2023-05-06T23:43:24.496Z,17.66
2023-05-06T23:46:27.203Z,17.59
2023-05-06T23:49:29.893Z,17.71
2023-05-06T23:52:32.466Z,17.60
2023-05-06T23:55:35.799Z,17.41
2023-05-06T23:58:38.416Z,17.36
